createdAt,value
2018-09-04T00:00:41.356Z,29.77
2018-09-04T00:03:17.831Z,29.37
2018-09-04T00:05:50.417Z,29.33
2018-09-04T00:08:23.251Z,32.03
2018-09-04T00:10:55.672Z,31.17
2018-09-04T00:13:28.273Z,34.27
2018-09-04T00:16:01.219Z,34.83
2018-09-04T00:18:33.763Z,35.43
2018-09-04T00:21:06.346Z,36.63
2018-09-04T00:23:38.858Z,35.50
2018-09-04T00:26:11.314Z,41.03
2018-09-04T00:28:44.026Z,37.40
2018-09-04T00:31:16.593Z,38.30
2018-09-04T00:33:49.214Z,41.90
2018-09-04T00:36:21.931Z,40.10
2018-09-04T00:38:54.539Z,40.97
2018-09-04T00:41:27.216Z,39.57
2018-09-04T00:43:59.815Z,41.43
2018-09-04T00:46:32.443Z,48.73
2018-09-04T00:49:04.972Z,42.37
2018-09-04T00:51:37.391Z,41.23
2018-09-04T00:54:09.866Z,41.77
2018-09-04T00:56:42.405Z,41.07
2018-09-04T00:59:14.937Z,41.67
2018-09-04T01:01:47.588Z,43.00
2018-09-04T01:04:21.581Z,39.23
2018-09-04T01:06:54.174Z,50.40
2018-09-04T01:09:26.779Z,16.63
2018-09-04T01:11:59.496Z,14.90
2018-09-04T01:14:32.041Z,10.73
2018-09-04T01:17:04.668Z,17.63
2018-09-04T01:19:37.404Z,15.27
2018-09-04T01:22:10.581Z,9.83
2018-09-04T01:24:43.771Z,10.00
2018-09-04T01:27:16.330Z,16.87
2018-09-04T01:29:48.877Z,13.07
2018-09-04T01:32:21.451Z,16.87
2018-09-04T01:34:54.017Z,13.22
2018-09-04T01:37:27.491Z,11.23
2018-09-04T01:40:00.099Z,12.43
2018-09-04T01:42:34.071Z,11.45
2018-09-04T01:45:07.391Z,12.87
2018-09-04T01:47:39.997Z,9.07
2018-09-04T01:50:13.698Z,13.60
2018-09-04T01:52:46.831Z,13.27
2018-09-04T01:55:19.419Z,11.77
2018-09-04T01:57:51.964Z,11.30
2018-09-04T02:00:24.723Z,10.37
2018-09-04T02:02:58.538Z,10.80
2018-09-04T02:05:31.078Z,11.05
2018-09-04T02:08:03.618Z,9.57
2018-09-04T02:10:36.307Z,9.50
2018-09-04T02:13:08.936Z,8.03
2018-09-04T02:15:41.814Z,8.13
2018-09-04T02:18:14.513Z,7.57
2018-09-04T02:20:48.710Z,9.83
2018-09-04T02:23:21.323Z,10.87
2018-09-04T02:25:54.196Z,11.50
2018-09-04T02:28:26.869Z,11.68
2018-09-04T02:30:59.413Z,11.70
2018-09-04T02:33:32.113Z,13.97
2018-09-04T02:36:05.068Z,16.93
2018-09-04T02:38:37.660Z,16.47
2018-09-04T02:41:11.815Z,18.60
2018-09-04T02:43:44.431Z,17.77
2018-09-04T02:46:24.457Z,14.27
2018-09-04T02:49:01.435Z,17.53
2018-09-04T02:51:34.483Z,18.10
2018-09-04T02:54:07.130Z,22.10
2018-09-04T02:56:40.322Z,16.77
2018-09-04T02:59:13.008Z,19.90
2018-09-04T03:01:46.241Z,22.73
2018-09-04T03:04:19.801Z,19.53
2018-09-04T03:07:00.090Z,22.90
2018-09-04T03:09:32.661Z,27.27
2018-09-04T03:12:05.279Z,23.47
2018-09-04T03:14:37.971Z,28.02
2018-09-04T03:17:10.956Z,31.63
2018-09-04T03:19:45.003Z,29.70
2018-09-04T03:22:18.036Z,24.03
2018-09-04T03:24:50.757Z,21.90
2018-09-04T03:27:23.496Z,23.70
2018-09-04T03:29:56.488Z,19.43
2018-09-04T03:32:29.340Z,22.93
2018-09-04T03:35:02.135Z,21.13
2018-09-04T03:37:34.637Z,23.47
2018-09-04T03:40:07.879Z,26.27
2018-09-04T03:42:41.227Z,19.53
2018-09-04T03:45:14.790Z,22.70
2018-09-04T03:47:48.696Z,24.80
2018-09-04T03:50:21.553Z,22.83
2018-09-04T03:52:55.660Z,23.37
2018-09-04T03:55:29.283Z,23.37
2018-09-04T03:58:02.277Z,24.73
2018-09-04T04:00:35.414Z,24.93
2018-09-04T04:03:08.415Z,26.17
2018-09-04T04:05:40.996Z,21.77
2018-09-04T04:08:14.296Z,24.83
2018-09-04T04:10:46.943Z,25.50
2018-09-04T04:13:19.554Z,28.03
2018-09-04T04:15:52.209Z,27.10
2018-09-04T04:18:24.901Z,25.27
2018-09-04T04:21:03.417Z,25.97
2018-09-04T04:23:36.050Z,27.37
2018-09-04T04:26:09.111Z,32.65
2018-09-04T04:28:44.169Z,28.63
2018-09-04T04:31:17.174Z,27.23
2018-09-04T04:33:50.200Z,25.13
2018-09-04T04:36:23.113Z,22.10
2018-09-04T04:38:55.677Z,26.27
2018-09-04T04:41:28.254Z,26.77
2018-09-04T04:44:02.374Z,34.97
2018-09-04T04:46:35.512Z,36.73
2018-09-04T04:49:08.354Z,57.03
2018-09-04T04:51:41.085Z,80.73
2018-09-04T04:54:13.849Z,210.03
2018-09-04T04:56:52.331Z,212.43
2018-09-04T04:59:24.942Z,71.20
2018-09-04T05:01:57.551Z,41.07
2018-09-04T05:04:30.196Z,33.73
2018-09-04T05:07:03.172Z,27.30
2018-09-04T05:09:35.823Z,19.37
2018-09-04T05:12:08.935Z,23.13
2018-09-04T05:14:41.573Z,18.97
2018-09-04T05:17:14.749Z,18.70
2018-09-04T05:19:47.708Z,18.97
2018-09-04T05:22:24.852Z,17.67
2018-09-04T05:24:57.577Z,17.73
2018-09-04T05:27:32.640Z,19.35
2018-09-04T05:31:38.457Z,15.27
2018-09-04T05:34:11.421Z,15.63
2018-09-04T05:36:45.801Z,18.02
2018-09-04T05:39:20.165Z,16.97
2018-09-04T05:41:55.299Z,15.90
2018-09-04T05:44:30.905Z,19.27
2018-09-04T05:47:07.122Z,17.50
2018-09-04T05:49:40.856Z,16.00
2018-09-04T05:52:13.777Z,15.37
2018-09-04T05:54:47.963Z,15.77
2018-09-04T05:57:21.187Z,18.50
2018-09-04T05:59:54.459Z,17.05
2018-09-04T06:02:27.625Z,18.87
2018-09-04T06:05:00.476Z,18.70
2018-09-04T06:07:33.210Z,17.90
2018-09-04T06:10:05.867Z,16.67
2018-09-04T06:12:38.557Z,15.83
2018-09-04T06:15:11.185Z,15.63
2018-09-04T06:17:43.820Z,16.93
2018-09-04T06:20:17.006Z,19.10
2018-09-04T06:22:49.836Z,19.37
2018-09-04T06:25:22.421Z,18.07
2018-09-04T06:27:55.117Z,17.97
2018-09-04T06:30:30.725Z,17.10
2018-09-04T06:33:04.972Z,17.23
2018-09-04T06:35:37.650Z,15.93
2018-09-04T06:38:10.289Z,16.17
2018-09-04T06:40:42.955Z,17.27
2018-09-04T06:43:15.486Z,16.40
2018-09-04T06:45:48.162Z,16.33
2018-09-04T06:48:20.734Z,19.87
2018-09-04T06:50:53.320Z,18.20
2018-09-04T06:53:25.962Z,18.03
2018-09-04T06:55:58.651Z,19.10
2018-09-04T06:58:31.414Z,15.57
2018-09-04T07:01:03.932Z,16.43
2018-09-04T07:03:36.723Z,19.03
2018-09-04T07:06:10.714Z,18.33
2018-09-04T07:08:43.435Z,18.17
2018-09-04T07:11:15.994Z,15.73
2018-09-04T07:13:50.022Z,16.43
2018-09-04T07:16:22.831Z,15.60
2018-09-04T07:18:55.271Z,15.98
2018-09-04T07:21:27.927Z,15.30
2018-09-04T07:24:00.691Z,16.33
2018-09-04T07:26:33.326Z,19.47
2018-09-04T07:29:05.932Z,18.90
2018-09-04T07:31:38.539Z,15.97
2018-09-04T07:34:11.443Z,19.90
2018-09-04T07:36:43.932Z,20.67
2018-09-04T07:39:16.345Z,18.03
2018-09-04T07:41:53.665Z,18.50
2018-09-04T07:44:26.259Z,17.37
2018-09-04T07:47:00.357Z,19.70
2018-09-04T07:49:33.977Z,20.27
2018-09-04T07:52:06.723Z,20.65
2018-09-04T07:54:39.182Z,19.97
2018-09-04T07:57:12.278Z,24.53
2018-09-04T07:59:44.807Z,22.90
2018-09-04T08:02:17.305Z,24.55
2018-09-04T08:04:50.424Z,29.43
2018-09-04T08:07:22.994Z,21.43
2018-09-04T08:09:55.820Z,22.37
2018-09-04T08:12:28.356Z,23.00
2018-09-04T08:26:23.680Z,28.10
2018-09-04T08:28:56.248Z,28.27
2018-09-04T08:31:28.798Z,23.17
2018-09-04T08:34:01.415Z,23.70
2018-09-04T08:36:34.000Z,20.87
2018-09-04T08:39:07.062Z,21.00
2018-09-04T08:41:39.673Z,19.47
2018-09-04T08:44:12.249Z,18.43
2018-09-04T08:46:44.824Z,22.30
2018-09-04T08:49:17.418Z,22.03
2018-09-04T08:51:49.891Z,21.73
2018-09-04T08:54:22.772Z,22.87
2018-09-04T09:01:52.079Z,17.67
2018-09-04T09:04:24.887Z,19.33
2018-09-04T09:06:57.469Z,20.60
2018-09-04T09:09:30.129Z,17.03
2018-09-04T09:12:02.729Z,19.20
2018-09-04T09:14:35.388Z,16.43
2018-09-04T09:17:07.924Z,19.80
2018-09-04T09:19:40.520Z,20.03
2018-09-04T09:22:12.998Z,19.63
2018-09-04T09:24:45.466Z,20.37
2018-09-04T09:27:18.324Z,19.77
2018-09-04T09:29:50.940Z,19.73
2018-09-04T09:32:23.551Z,18.50
2018-09-04T09:34:56.337Z,20.60
2018-09-04T09:37:28.910Z,19.87
2018-09-04T09:40:01.563Z,21.10
2018-09-04T09:42:34.330Z,23.33
2018-09-04T09:45:06.867Z,22.93
2018-09-04T09:47:57.243Z,18.70
2018-09-04T09:50:29.895Z,14.30
2018-09-04T09:53:02.519Z,16.53
2018-09-04T09:55:35.202Z,15.47
2018-09-04T09:58:07.883Z,14.43
2018-09-04T10:00:44.660Z,16.17
2018-09-04T10:03:21.610Z,14.35
2018-09-04T10:05:54.184Z,15.20
2018-09-04T10:08:26.932Z,17.00
2018-09-04T10:10:59.668Z,18.23
2018-09-04T10:13:32.870Z,17.83
2018-09-04T10:16:05.439Z,19.20
2018-09-04T10:18:37.994Z,25.77
2018-09-04T10:21:10.599Z,20.23
2018-09-04T10:23:43.272Z,20.77
2018-09-04T10:26:16.161Z,16.67
2018-09-04T10:28:49.066Z,20.55
2018-09-04T10:31:21.762Z,21.23
2018-09-04T10:33:54.486Z,24.90
2018-09-04T10:36:27.195Z,25.17
2018-09-04T10:39:04.070Z,26.20
2018-09-04T10:41:36.740Z,24.07
2018-09-04T10:44:09.370Z,30.32
2018-09-04T10:46:42.469Z,26.70
2018-09-04T10:49:15.138Z,33.53
2018-09-04T10:51:47.703Z,31.75
2018-09-04T10:54:20.427Z,29.37
2018-09-04T10:56:53.289Z,21.10
2018-09-04T10:59:25.798Z,23.93
2018-09-04T11:01:58.361Z,33.17
2018-09-04T11:04:31.087Z,36.53
2018-09-04T11:07:03.857Z,27.60
2018-09-04T11:09:36.632Z,27.10
2018-09-04T11:12:09.235Z,24.47
2018-09-04T11:14:41.961Z,31.40
2018-09-04T11:17:14.493Z,30.33
2018-09-04T11:19:47.164Z,37.97
2018-09-04T11:22:19.824Z,43.67
2018-09-04T11:24:52.275Z,37.10
2018-09-04T11:27:25.010Z,47.43
2018-09-04T11:29:57.660Z,53.37
2018-09-04T11:32:30.164Z,56.80
2018-09-04T11:35:02.466Z,41.07
2018-09-04T11:39:04.069Z,42.30
2018-09-04T11:41:36.764Z,44.57
2018-09-04T11:44:09.362Z,31.47
2018-09-04T11:46:41.972Z,26.80
2018-09-04T11:49:14.583Z,33.97
2018-09-04T11:51:47.162Z,33.07
2018-09-04T11:54:19.813Z,31.80
2018-09-04T11:56:52.333Z,38.20
2018-09-04T11:59:25.190Z,35.13
2018-09-04T12:02:00.318Z,29.98
2018-09-04T12:04:33.126Z,29.63
2018-09-04T12:07:05.795Z,28.33
2018-09-04T12:09:54.468Z,29.67
2018-09-04T12:12:40.027Z,23.70
2018-09-04T12:15:20.896Z,24.70
2018-09-04T12:17:56.509Z,34.70
2018-09-04T12:20:56.344Z,33.10
2018-09-04T12:23:30.457Z,24.67
2018-09-04T12:26:04.785Z,39.47
2018-09-04T12:28:37.617Z,44.07
2018-09-04T12:31:11.772Z,34.37
2018-09-04T12:33:49.168Z,41.20
2018-09-04T12:36:25.985Z,25.03
2018-09-04T12:39:10.413Z,51.03
2018-09-04T12:41:54.610Z,26.83
2018-09-04T12:44:27.440Z,23.43
2018-09-04T12:47:00.526Z,27.47
2018-09-04T12:49:33.093Z,27.00
2018-09-04T12:52:06.186Z,51.83
2018-09-04T12:54:44.105Z,22.27
2018-09-04T12:57:17.149Z,22.50
2018-09-04T12:59:50.772Z,16.57
2018-09-04T13:02:35.637Z,24.23
2018-09-04T13:05:13.935Z,34.73
2018-09-04T13:07:49.050Z,32.37
2018-09-04T13:10:33.262Z,24.27
2018-09-04T13:13:15.428Z,13.27
2018-09-04T13:16:03.618Z,19.23
2018-09-04T13:18:42.456Z,15.23
2018-09-04T13:21:21.850Z,15.80
2018-09-04T13:23:59.151Z,16.70
2018-09-04T13:26:44.442Z,34.70
2018-09-04T13:29:26.342Z,20.87
2018-09-04T13:33:28.608Z,22.47
2018-09-04T13:36:08.987Z,39.83
2018-09-04T13:38:45.660Z,34.53
2018-09-04T13:41:18.269Z,53.93
2018-09-04T13:43:50.770Z,42.33
2018-09-04T13:46:25.333Z,57.80
2018-09-04T13:48:57.915Z,31.17
2018-09-04T13:51:33.075Z,33.43
2018-09-04T13:54:06.368Z,29.80
2018-09-04T13:56:39.845Z,31.70
2018-09-04T13:59:12.641Z,26.17
2018-09-04T14:01:47.278Z,36.80
2018-09-04T14:04:24.228Z,31.33
2018-09-04T14:06:57.470Z,31.27
2018-09-04T14:09:31.002Z,30.13
2018-09-04T14:12:18.686Z,27.87
2018-09-04T14:14:52.193Z,23.17
2018-09-04T14:17:28.197Z,18.47
2018-09-04T14:20:02.607Z,20.30
2018-09-04T14:22:38.814Z,26.70
2018-09-04T14:25:14.903Z,16.93
2018-09-04T14:27:48.236Z,24.37
2018-09-04T14:35:04.141Z,21.40
2018-09-04T14:37:37.314Z,19.90
2018-09-04T14:40:12.734Z,22.43
2018-09-04T14:42:46.353Z,23.85
2018-09-04T14:45:22.191Z,18.07
2018-09-04T14:47:58.173Z,18.47
2018-09-04T14:54:11.013Z,18.70
2018-09-04T14:56:46.784Z,15.53
2018-09-04T14:59:22.404Z,17.57
2018-09-04T15:01:57.382Z,19.73
2018-09-04T15:04:33.367Z,14.80
2018-09-04T15:07:08.812Z,23.60
2018-09-04T15:09:43.352Z,16.50
2018-09-04T15:12:18.613Z,16.33
2018-09-04T15:14:57.936Z,49.60
2018-09-04T15:20:30.784Z,17.07
2018-09-04T15:23:17.706Z,15.00
2018-09-04T15:25:58.634Z,10.97
2018-09-04T15:28:50.784Z,16.53
2018-09-04T15:31:27.245Z,16.03
2018-09-04T15:34:09.540Z,17.40
2018-09-04T15:36:46.840Z,14.27
2018-09-04T15:39:23.852Z,24.77
2018-09-04T15:41:59.954Z,7.97
2018-09-04T15:44:39.510Z,8.37
2018-09-04T15:47:20.003Z,10.30
2018-09-04T15:49:53.756Z,21.60
2018-09-04T15:52:37.636Z,15.40
2018-09-04T15:55:16.195Z,17.40
2018-09-04T15:57:49.504Z,11.63
2018-09-04T16:00:25.118Z,10.93
2018-09-04T16:02:59.318Z,13.57
2018-09-04T16:05:33.029Z,10.27
2018-09-04T16:08:07.714Z,10.43
2018-09-04T16:10:41.212Z,12.37
2018-09-04T16:13:14.991Z,11.43
2018-09-04T16:15:47.870Z,11.77
2018-09-04T16:18:22.607Z,13.47
2018-09-04T16:20:56.385Z,12.07
2018-09-04T16:23:38.707Z,10.37
2018-09-04T16:26:11.986Z,14.40
2018-09-04T16:28:44.568Z,17.13
2018-09-04T16:31:16.905Z,15.67
2018-09-04T16:33:49.533Z,14.40
2018-09-04T16:36:23.337Z,13.63
2018-09-04T16:38:57.135Z,14.67
2018-09-04T16:41:30.123Z,13.93
2018-09-04T16:44:04.364Z,14.63
2018-09-04T16:46:36.732Z,17.70
2018-09-04T16:49:17.019Z,15.83
2018-09-04T16:51:54.285Z,17.17
2018-09-04T16:54:37.412Z,15.53
2018-09-04T16:57:20.787Z,20.57
2018-09-04T16:59:58.437Z,31.62
2018-09-04T17:05:32.529Z,17.13
2018-09-04T17:08:11.202Z,16.60
2018-09-04T17:13:28.507Z,17.17
2018-09-04T17:19:09.933Z,25.70
2018-09-04T17:21:55.800Z,16.20
2018-09-04T17:27:23.421Z,16.30
2018-09-04T17:30:00.046Z,20.07
2018-09-04T17:35:18.889Z,19.17
2018-09-04T17:37:54.827Z,19.70
2018-09-04T17:40:29.510Z,17.40
2018-09-04T17:43:06.162Z,17.77
2018-09-04T17:45:40.342Z,15.23
2018-09-04T17:48:22.574Z,13.38
2018-09-04T17:50:59.363Z,15.37
2018-09-04T17:53:43.216Z,12.37
2018-09-04T17:56:19.870Z,16.60
2018-09-04T17:59:02.151Z,13.83
2018-09-04T18:01:38.282Z,14.20
2018-09-04T18:04:12.734Z,15.40
2018-09-04T18:06:46.558Z,21.55
2018-09-04T18:09:19.730Z,10.27
2018-09-04T18:11:54.507Z,10.03
2018-09-04T18:14:28.608Z,11.80
2018-09-04T18:17:03.603Z,19.33
2018-09-04T18:19:37.276Z,14.33
2018-09-04T18:22:11.642Z,18.17
2018-09-04T18:24:45.529Z,17.17
2018-09-04T18:27:20.009Z,16.90
2018-09-04T18:29:56.469Z,11.27
2018-09-04T18:32:33.794Z,10.17
2018-09-04T18:35:08.895Z,14.98
2018-09-04T18:38:07.229Z,11.53
2018-09-04T18:40:49.677Z,13.67
2018-09-04T18:43:25.423Z,13.90
2018-09-04T18:45:59.899Z,21.53
2018-09-04T18:48:37.012Z,14.30
2018-09-04T18:51:14.010Z,22.60
2018-09-04T18:53:50.080Z,15.17
2018-09-04T18:56:26.623Z,11.90
2018-09-04T18:59:06.846Z,14.87
2018-09-04T19:01:41.511Z,15.70
2018-09-04T19:04:15.104Z,57.97
2018-09-04T19:06:48.543Z,14.35
2018-09-04T19:09:22.020Z,16.13
2018-09-04T19:11:56.285Z,15.13
2018-09-04T19:14:30.480Z,14.93
2018-09-04T19:17:03.856Z,16.23
2018-09-04T19:19:39.496Z,15.30
2018-09-04T19:22:16.067Z,16.40
2018-09-04T19:24:51.411Z,17.43
2018-09-04T19:27:26.732Z,14.90
2018-09-04T19:30:05.294Z,15.97
2018-09-04T19:32:48.926Z,15.23
2018-09-04T19:35:23.389Z,16.43
2018-09-04T19:37:58.487Z,18.93
2018-09-04T19:40:34.042Z,15.40
2018-09-04T19:43:09.183Z,17.20
2018-09-04T19:45:45.441Z,17.40
2018-09-04T19:48:18.952Z,17.93
2018-09-04T19:50:52.689Z,16.00
2018-09-04T19:53:26.664Z,16.35
2018-09-04T19:59:01.342Z,16.07
2018-09-04T20:01:34.507Z,17.35
2018-09-04T20:04:10.068Z,15.30
2018-09-04T20:06:45.408Z,15.53
2018-09-04T20:09:19.125Z,18.75
2018-09-04T20:11:56.970Z,17.30
2018-09-04T20:14:30.102Z,16.43
2018-09-04T20:17:03.667Z,17.83
2018-09-04T20:19:36.638Z,18.00
2018-09-04T20:25:02.746Z,16.70
2018-09-04T20:27:36.010Z,19.67
2018-09-04T20:30:17.016Z,20.90
2018-09-04T20:32:54.616Z,21.53
2018-09-04T20:35:29.168Z,24.35
2018-09-04T20:38:05.824Z,28.00
2018-09-04T20:40:42.101Z,29.40
2018-09-04T20:43:17.175Z,29.33
2018-09-04T20:45:58.961Z,33.33
2018-09-04T20:48:33.229Z,35.27
2018-09-04T20:51:07.206Z,35.97
2018-09-04T20:53:41.666Z,32.50
2018-09-04T20:56:20.337Z,27.45
2018-09-04T20:59:08.221Z,23.47
2018-09-04T21:01:51.003Z,23.57
2018-09-04T21:04:33.373Z,22.03
2018-09-04T21:07:04.261Z,23.90
2018-09-04T21:09:46.077Z,22.93
2018-09-04T21:12:19.976Z,22.33
2018-09-04T21:15:00.438Z,24.87
2018-09-04T21:17:36.449Z,23.70
2018-09-04T21:20:11.094Z,25.33
2018-09-04T21:22:45.102Z,29.70
2018-09-04T21:25:22.119Z,28.03
2018-09-04T21:27:56.223Z,24.27
2018-09-04T21:30:30.438Z,22.33
2018-09-04T21:33:04.025Z,22.50
2018-09-04T21:35:37.216Z,21.83
2018-09-04T21:38:13.743Z,22.53
2018-09-04T21:40:47.277Z,25.47
2018-09-04T21:43:30.472Z,24.57
2018-09-04T21:46:19.679Z,28.80
2018-09-04T21:49:06.475Z,26.23
2018-09-04T21:51:47.269Z,27.80
2018-09-04T21:54:20.176Z,29.12
2018-09-04T21:57:03.015Z,27.50
2018-09-04T21:59:43.138Z,26.67
2018-09-04T22:02:18.788Z,24.80
2018-09-04T22:04:53.200Z,27.33
2018-09-04T22:07:28.450Z,31.73
2018-09-04T22:10:02.007Z,26.47
2018-09-04T22:12:38.053Z,30.53
2018-09-04T22:15:10.971Z,30.00
2018-09-04T22:17:44.086Z,33.50
2018-09-04T22:20:17.076Z,30.83
2018-09-04T22:23:06.014Z,28.63
2018-09-04T22:25:38.646Z,25.07
2018-09-04T22:28:14.966Z,22.50
2018-09-04T22:30:55.128Z,23.55
2018-09-04T22:33:28.409Z,22.10
2018-09-04T22:36:00.762Z,20.83
2018-09-04T22:38:33.083Z,20.50
2018-09-04T22:41:05.541Z,18.40
2018-09-04T22:43:38.010Z,18.80
2018-09-04T22:46:10.471Z,18.73
2018-09-04T22:48:42.864Z,17.97
2018-09-04T22:51:19.540Z,20.17
2018-09-04T22:53:51.865Z,24.20
2018-09-04T22:56:24.908Z,35.43
2018-09-04T22:58:57.409Z,36.83
2018-09-04T23:01:29.857Z,38.33
2018-09-04T23:04:05.033Z,25.67
2018-09-04T23:06:37.947Z,25.43
2018-09-04T23:09:11.731Z,22.97
2018-09-04T23:11:44.353Z,25.10
2018-09-04T23:14:16.804Z,26.20
2018-09-04T23:16:49.225Z,28.03
2018-09-04T23:19:22.901Z,25.77
2018-09-04T23:21:57.779Z,29.23
2018-09-04T23:24:31.093Z,35.23
2018-09-04T23:27:04.265Z,35.33
2018-09-04T23:29:40.335Z,38.50
2018-09-04T23:32:12.805Z,31.90
2018-09-04T23:34:45.134Z,30.10
2018-09-04T23:37:18.462Z,29.80
2018-09-04T23:39:51.224Z,28.90
2018-09-04T23:42:23.897Z,28.70
2018-09-04T23:44:57.220Z,29.00
2018-09-04T23:47:29.769Z,27.70
2018-09-04T23:50:02.252Z,32.90
2018-09-04T23:52:34.870Z,30.60
2018-09-04T23:55:07.643Z,30.77
2018-09-04T23:57:41.645Z,27.90
